Stolt Shearwater — ZCRD9 — position and weather

sailwx.info

Track history (hours):
 
Tides and Currents Weather Stations Pressure Air Temp Water Temp Dewpoint Dewpoint Depression Visibility Wind Speed Wind Dir Waves Ship Positions

Stolt Shearwater

Last reported at 2014-Sep-01 15:20 UTC. Time now 2014-Sep-01 21:08 UTC.
Position N 36°41' E 014°34'.

Length 96 m; draft 6.3 m.

Type: Ship (hazmat cat B). MMSI: 319402000.

Date/timePositionNaut miles runAvg speedWind from/ knotsBaromVisibWave heightAir tempDewpointWater temp
2014-Sep-01 15:20N 36°41' E 014°34'911.6
2014-Sep-01 14:34N 36°43' E 014°23'1111.3
2014-Sep-01 13:33N 36°45' E 014°09'1111.0
2014-Sep-01 12:33N 36°48' E 013°56'1110.8
2014-Sep-01 11:33N 36°51' E 013°43'13510.8
2014-Aug-31 23:07N 37°27' E 011°00'610.8
2014-Aug-31 22:33N 37°30' E 010°53'1611.0
2014-Aug-31 21:04N 37°38' E 010°35'1711.2
2014-Aug-31 19:33N 37°47' E 010°17'1111.3
2014-Aug-31 18:33N 37°52' E 010°04'1111.2
2014-Aug-31 17:33N 37°57' E 009°52'1110.8
2014-Aug-31 16:33N 38°02' E 009°39'1111.0
2014-Aug-31 15:33N 38°07' E 009°27'1210.8
2014-Aug-31 14:26N 38°13' E 009°13'910.5
2014-Aug-31 13:33N 38°17' E 009°03'1010.4
2014-Aug-31 12:33N 38°22' E 008°51'1110.4
2014-Aug-31 11:32N 38°27' E 008°39'2210.3
2014-Aug-31 09:26N 38°37' E 008°15'1210.3
2014-Aug-31 08:18N 38°47' E 008°08'910.2
2014-Aug-31 07:27N 38°55' E 008°03'1110.6
2014-Aug-31 06:24N 39°05' E 007°56'2010.7
2014-Aug-31 04:33N 39°23' E 007°44'2210.5
2014-Aug-31 02:25N 39°42' E 007°30'2010.4
2014-Aug-31 00:30N 39°60' E 007°18'2210.6
2014-Aug-30 22:28N 40°19' E 007°05'1010.6
2014-Aug-30 21:33N 40°27' E 006°59'1210.6
2014-Aug-30 20:28N 40°37' E 006°51'1110.8
2014-Aug-30 19:28N 40°47' E 006°45'1411.1
2014-Aug-30 18:12N 40°60' E 006°37'7 9.7
2014-Aug-30 17:27N 41°06' E 006°32'910.3
2014-Aug-30 16:33N 41°14' E 006°26'1110.4
2014-Aug-30 15:30N 41°24' E 006°19'19 8.9
2014-Aug-30 13:19N 41°41' E 006°07'5 6.6
2014-Aug-30 12:33N 41°45' E 006°04'10 9.2
2014-Aug-30 11:28N 41°54' E 005°57'9 9.9
2014-Aug-30 10:32N 42°02' E 005°52'1110.7
2014-Aug-30 09:30N 42°12' E 005°44'1110.5
2014-Aug-30 08:28N 42°21' E 005°38'910.1
2014-Aug-30 07:34N 42°30' E 005°32'1010.4
2014-Aug-30 06:33N 42°39' E 005°25'1010.4
2014-Aug-30 05:33N 42°48' E 005°18'2110.0
2014-Aug-30 03:25N 43°07' E 005°05'910.0
2014-Aug-30 02:33N 43°15' E 005°00'9 9.0
2014-Aug-30 01:33N 43°24' E 004°59'7 6.5
2014-Aug-30 00:33N 43°26' E 005°07'2 1.5
2014-Aug-29 23:33N 43°27' E 005°09'0 0.0
2014-Aug-29 10:17N 43°27' E 005°09'2 3.3
2014-Aug-29 09:33N 43°26' E 005°06'7 6.7
2014-Aug-29 08:33N 43°24' E 004°58'1 0.9
2014-Aug-29 07:33N 43°24' E 004°57'0 0.0
2014-Aug-29 06:33N 43°24' E 004°57'0 0.1
2014-Aug-29 05:33N 43°24' E 004°57'0 0.0
2014-Aug-29 04:33N 43°24' E 004°57'0 0.0
2014-Aug-29 03:30N 43°24' E 004°57'0 0.0
2014-Aug-29 02:33N 43°24' E 004°57'0 0.0
2014-Aug-29 01:30N 43°24' E 004°57'0 0.0
2014-Aug-29 00:33N 43°24' E 004°57'0 0.0
2014-Aug-28 23:33N 43°24' E 004°57'0 0.0
2014-Aug-28 22:33N 43°24' E 004°57'0 0.0
2014-Aug-28 21:33N 43°24' E 004°57'0 0.0
2014-Aug-28 20:33N 43°24' E 004°57'0 0.0
2014-Aug-28 19:33N 43°24' E 004°57'0 0.0
2014-Aug-28 18:33N 43°24' E 004°57'0 0.0
2014-Aug-28 17:33N 43°24' E 004°57'0 0.0
2014-Aug-28 16:33N 43°24' E 004°57'0 0.0
2014-Aug-28 15:33N 43°24' E 004°57'0 0.0
2014-Aug-28 14:33N 43°24' E 004°57'0 0.0
2014-Aug-28 13:33N 43°24' E 004°57'0 0.0
2014-Aug-28 12:33N 43°24' E 004°57'0 0.1
2014-Aug-28 11:33N 43°24' E 004°57'0 0.0
2014-Aug-28 10:30N 43°24' E 004°57'0 0.0
2014-Aug-28 09:33N 43°24' E 004°57'0 0.0
2014-Aug-28 08:33N 43°24' E 004°57'0 0.0
2014-Aug-28 07:33N 43°24' E 004°57'1 1.1
2014-Aug-28 06:34N 43°24' E 004°58'7 7.3
2014-Aug-28 05:34N 43°16' E 005°01'9 8.6
2014-Aug-28 04:34N 43°08' E 005°01'20 9.1
2014-Aug-28 02:25N 42°52' E 004°44'9 8.7
2014-Aug-28 01:23N 42°45' E 004°37'8 8.8
2014-Aug-28 00:32N 42°39' E 004°31'8 8.5
2014-Aug-27 23:33N 42°33' E 004°24'9 8.6
2014-Aug-27 22:31N 42°26' E 004°16'11 9.3
2014-Aug-27 21:22N 42°17' E 004°07'8 9.6
2014-Aug-27 20:33N 42°11' E 004°01'3210.4
2014-Aug-27 17:25N 41°45' E 003°35'16 8.3
2014-Aug-27 15:31N 41°33' E 003°21'10 9.1
2014-Aug-27 14:24N 41°25' E 003°13'1010.0
2014-Aug-27 13:27N 41°17' E 003°05'8 8.3
2014-Aug-27 12:26N 41°11' E 002°58'7 8.5
2014-Aug-27 11:33N 41°05' E 002°52'9 9.0
2014-Aug-27 10:32N 40°58' E 002°45'10 9.8
2014-Aug-27 09:33N 40°50' E 002°37'10 9.7
2014-Aug-27 08:33N 40°42' E 002°29'10 9.7
2014-Aug-27 07:33N 40°34' E 002°22'10 9.8
2014-Aug-27 06:33N 40°27' E 002°13'1010.0
2014-Aug-27 05:34N 40°19' E 002°05'1010.1
2014-Aug-27 04:33N 40°11' E 001°57'1010.3
2014-Aug-27 03:33N 40°03' E 001°49'1010.4
2014-Aug-27 02:33N 39°55' E 001°40'1010.1
2014-Aug-27 01:33N 39°47' E 001°33'40 9.9
2014-Aug-26 21:33N 39°15' E 001°01'2310.3
2014-Aug-26 19:22N 38°57' E 000°43'910.5
2014-Aug-26 18:32N 38°51' E 000°36'1010.3
2014-Aug-26 17:33N 38°43' E 000°29'1110.4
2014-Aug-26 16:32N 38°34' E 000°21'10 9.8
2014-Aug-26 15:33N 38°26' E 000°14'1010.2
2014-Aug-26 14:32N 38°17' E 000°07'1110.6
2014-Aug-26 13:32N 38°08' W 000°01'1010.3
2014-Aug-26 12:33N 38°00' W 000°08'1010.3
2014-Aug-26 11:33N 37°52' W 000°15'1010.0
2014-Aug-26 10:33N 37°43' W 000°23'1010.1
2014-Aug-26 09:33N 37°35' W 000°29'1010.0
2014-Aug-26 08:33N 37°28' W 000°38'10 9.9
2014-Aug-26 07:33N 37°21' W 000°48'1210.0
2014-Aug-26 06:23N 37°13' W 000°59'37 9.7
2014-Aug-26 02:32N 36°49' W 001°34'1010.0
2014-Aug-26 01:33N 36°42' W 001°43'335 9.8
2014-Aug-24 15:33N 36°23' W 008°39'1610.8
2014-Aug-24 14:06N 36°26' W 008°58'810.4
2014-Aug-24 13:18N 36°28' W 009°08'20 9.5
2014-Aug-24 11:15N 36°37' W 009°29'  
Track history (hours):
 
Tides and Currents Weather Stations Pressure Air Temp Water Temp Dewpoint Dewpoint Depression Visibility Wind Speed Wind Dir Waves Ship Positions

Stolt Shearwater

Last reported at 2014-Sep-01 15:20 UTC. Time now 2014-Sep-01 21:08 UTC.
Position N 36°41' E 014°34'.

Length 96 m; draft 6.3 m.

Type: Ship (hazmat cat B). MMSI: 319402000.

Date/timePositionNaut miles runAvg speedWind from/ knotsBaromVisibWave heightAir tempDewpointWater temp
2014-Sep-01 15:20N 36°41' E 014°34'911.6
2014-Sep-01 14:34N 36°43' E 014°23'1111.3
2014-Sep-01 13:33N 36°45' E 014°09'1111.0
2014-Sep-01 12:33N 36°48' E 013°56'1110.8
2014-Sep-01 11:33N 36°51' E 013°43'13510.8
2014-Aug-31 23:07N 37°27' E 011°00'610.8
2014-Aug-31 22:33N 37°30' E 010°53'1611.0
2014-Aug-31 21:04N 37°38' E 010°35'1711.2
2014-Aug-31 19:33N 37°47' E 010°17'1111.3
2014-Aug-31 18:33N 37°52' E 010°04'1111.2
2014-Aug-31 17:33N 37°57' E 009°52'1110.8
2014-Aug-31 16:33N 38°02' E 009°39'1111.0
2014-Aug-31 15:33N 38°07' E 009°27'1210.8
2014-Aug-31 14:26N 38°13' E 009°13'910.5
2014-Aug-31 13:33N 38°17' E 009°03'1010.4
2014-Aug-31 12:33N 38°22' E 008°51'1110.4
2014-Aug-31 11:32N 38°27' E 008°39'2210.3
2014-Aug-31 09:26N 38°37' E 008°15'1210.3
2014-Aug-31 08:18N 38°47' E 008°08'910.2
2014-Aug-31 07:27N 38°55' E 008°03'1110.6
2014-Aug-31 06:24N 39°05' E 007°56'2010.7
2014-Aug-31 04:33N 39°23' E 007°44'2210.5
2014-Aug-31 02:25N 39°42' E 007°30'2010.4
2014-Aug-31 00:30N 39°60' E 007°18'2210.6
2014-Aug-30 22:28N 40°19' E 007°05'1010.6
2014-Aug-30 21:33N 40°27' E 006°59'1210.6
2014-Aug-30 20:28N 40°37' E 006°51'1110.8
2014-Aug-30 19:28N 40°47' E 006°45'1411.1
2014-Aug-30 18:12N 40°60' E 006°37'7 9.7
2014-Aug-30 17:27N 41°06' E 006°32'910.3
2014-Aug-30 16:33N 41°14' E 006°26'1110.4
2014-Aug-30 15:30N 41°24' E 006°19'19 8.9
2014-Aug-30 13:19N 41°41' E 006°07'5 6.6
2014-Aug-30 12:33N 41°45' E 006°04'10 9.2
2014-Aug-30 11:28N 41°54' E 005°57'9 9.9
2014-Aug-30 10:32N 42°02' E 005°52'1110.7
2014-Aug-30 09:30N 42°12' E 005°44'1110.5
2014-Aug-30 08:28N 42°21' E 005°38'910.1
2014-Aug-30 07:34N 42°30' E 005°32'1010.4
2014-Aug-30 06:33N 42°39' E 005°25'1010.4
2014-Aug-30 05:33N 42°48' E 005°18'2110.0
2014-Aug-30 03:25N 43°07' E 005°05'910.0
2014-Aug-30 02:33N 43°15' E 005°00'9 9.0
2014-Aug-30 01:33N 43°24' E 004°59'7 6.5
2014-Aug-30 00:33N 43°26' E 005°07'2 1.5
2014-Aug-29 23:33N 43°27' E 005°09'0 0.0
2014-Aug-29 10:17N 43°27' E 005°09'2 3.3
2014-Aug-29 09:33N 43°26' E 005°06'7 6.7
2014-Aug-29 08:33N 43°24' E 004°58'1 0.9
2014-Aug-29 07:33N 43°24' E 004°57'0 0.0
2014-Aug-29 06:33N 43°24' E 004°57'0 0.1
2014-Aug-29 05:33N 43°24' E 004°57'0 0.0
2014-Aug-29 04:33N 43°24' E 004°57'0 0.0
2014-Aug-29 03:30N 43°24' E 004°57'0 0.0
2014-Aug-29 02:33N 43°24' E 004°57'0 0.0
2014-Aug-29 01:30N 43°24' E 004°57'0 0.0
2014-Aug-29 00:33N 43°24' E 004°57'0 0.0
2014-Aug-28 23:33N 43°24' E 004°57'0 0.0
2014-Aug-28 22:33N 43°24' E 004°57'0 0.0
2014-Aug-28 21:33N 43°24' E 004°57'0 0.0
2014-Aug-28 20:33N 43°24' E 004°57'0 0.0
2014-Aug-28 19:33N 43°24' E 004°57'0 0.0
2014-Aug-28 18:33N 43°24' E 004°57'0 0.0
2014-Aug-28 17:33N 43°24' E 004°57'0 0.0
2014-Aug-28 16:33N 43°24' E 004°57'0 0.0
2014-Aug-28 15:33N 43°24' E 004°57'0 0.0
2014-Aug-28 14:33N 43°24' E 004°57'0 0.0
2014-Aug-28 13:33N 43°24' E 004°57'0 0.0
2014-Aug-28 12:33N 43°24' E 004°57'0 0.1
2014-Aug-28 11:33N 43°24' E 004°57'0 0.0
2014-Aug-28 10:30N 43°24' E 004°57'0 0.0
2014-Aug-28 09:33N 43°24' E 004°57'0 0.0
2014-Aug-28 08:33N 43°24' E 004°57'0 0.0
2014-Aug-28 07:33N 43°24' E 004°57'1 1.1
2014-Aug-28 06:34N 43°24' E 004°58'7 7.3
2014-Aug-28 05:34N 43°16' E 005°01'9 8.6
2014-Aug-28 04:34N 43°08' E 005°01'20 9.1
2014-Aug-28 02:25N 42°52' E 004°44'9 8.7
2014-Aug-28 01:23N 42°45' E 004°37'8 8.8
2014-Aug-28 00:32N 42°39' E 004°31'8 8.5
2014-Aug-27 23:33N 42°33' E 004°24'9 8.6
2014-Aug-27 22:31N 42°26' E 004°16'11 9.3
2014-Aug-27 21:22N 42°17' E 004°07'8 9.6
2014-Aug-27 20:33N 42°11' E 004°01'3210.4
2014-Aug-27 17:25N 41°45' E 003°35'16 8.3
2014-Aug-27 15:31N 41°33' E 003°21'10 9.1
2014-Aug-27 14:24N 41°25' E 003°13'1010.0
2014-Aug-27 13:27N 41°17' E 003°05'8 8.3
2014-Aug-27 12:26N 41°11' E 002°58'7 8.5
2014-Aug-27 11:33N 41°05' E 002°52'9 9.0
2014-Aug-27 10:32N 40°58' E 002°45'10 9.8
2014-Aug-27 09:33N 40°50' E 002°37'10 9.7
2014-Aug-27 08:33N 40°42' E 002°29'10 9.7
2014-Aug-27 07:33N 40°34' E 002°22'10 9.8
2014-Aug-27 06:33N 40°27' E 002°13'1010.0
2014-Aug-27 05:34N 40°19' E 002°05'1010.1
2014-Aug-27 04:33N 40°11' E 001°57'1010.3
2014-Aug-27 03:33N 40°03' E 001°49'1010.4
2014-Aug-27 02:33N 39°55' E 001°40'1010.1
2014-Aug-27 01:33N 39°47' E 001°33'40 9.9
2014-Aug-26 21:33N 39°15' E 001°01'2310.3
2014-Aug-26 19:22N 38°57' E 000°43'910.5
2014-Aug-26 18:32N 38°51' E 000°36'1010.3
2014-Aug-26 17:33N 38°43' E 000°29'1110.4
2014-Aug-26 16:32N 38°34' E 000°21'10 9.8
2014-Aug-26 15:33N 38°26' E 000°14'1010.2
2014-Aug-26 14:32N 38°17' E 000°07'1110.6
2014-Aug-26 13:32N 38°08' W 000°01'1010.3
2014-Aug-26 12:33N 38°00' W 000°08'1010.3
2014-Aug-26 11:33N 37°52' W 000°15'1010.0
2014-Aug-26 10:33N 37°43' W 000°23'1010.1
2014-Aug-26 09:33N 37°35' W 000°29'1010.0
2014-Aug-26 08:33N 37°28' W 000°38'10 9.9
2014-Aug-26 07:33N 37°21' W 000°48'1210.0
2014-Aug-26 06:23N 37°13' W 000°59'37 9.7
2014-Aug-26 02:32N 36°49' W 001°34'1010.0
2014-Aug-26 01:33N 36°42' W 001°43'335 9.8
2014-Aug-24 15:33N 36°23' W 008°39'1610.8
2014-Aug-24 14:06N 36°26' W 008°58'810.4
2014-Aug-24 13:18N 36°28' W 009°08'20 9.5
2014-Aug-24 11:15N 36°37' W 009°29'  

Dump ship's entire track history